Aérodrome :
LOGIN :

S'inscrire | Disclaimer

   EN    FR    IT 

 










Légende :    VFR   VFR Marginal   IFR   IFR Intensif   IFR Très Intensif
Visi : 
Plafond : 
>= 8 km
>= 3000ft
5 à 8 km
1000 à 3000 ft
1500m à 5 km
500 à 1000 ft
800 à 1500m
200 à 500 ft
< 800m
< 200 ft
Symboles :   Orages  Brouillard  Fortes neiges  Fortes précipitations  Vent > 20 kt
SIGMETs :   Divers  Orages  Givrage  Turbulence  Onde Orograph.  Cendres Volcan.






- Altitude de l'aérodrome : 510 ft


LJCE - Cerklje

DERNIER METAR :
  • 032000Z AUTO 00000KT 9999 NCD 23/18 Q1017

METARs EXPIRÉS :
  • 031930Z AUTO VRB01KT 9999 NCD 25/17 Q1017
  • 031900Z AUTO 16002KT 9999 NCD 27/17 Q1017
  • 031830Z AUTO 12004KT 9999 NCD 28/16 Q1016
  • 030500Z AUTO 25003KT 9999 NSC 18/15 Q1020
  • 031800Z 07004KT 040V100 CAVOK 31/15 Q1016 RMK BLU
  • 031730Z 07006KT CAVOK 32/15 Q1016 RMK BLU

TAF TAF LJCE
Valide du 03 à 18h jusqu'au 04 à 03h UTC


031700Z 0318/0403 VRB02KT CAVOK



MET'MAP, la Météo Aéronautique d'un coup d'oeil ! - Copyright ORBIFLY Décembre 2007 - Disclaimer

ORBIFLY MET'MAP TEAM :

Programmation & Développement : Alexandra Zaïnal
Sur une idée originale de : Baudouin d'Aumeries
Soutien technique & logistique : Manuel Goepfert
Assistance : Marc-Olivier Méhu




SOURCES & CREDITS :

   NOAA